createdAt,value
2019-03-31T00:01:58.098Z,95.80
2019-03-31T00:04:29.109Z,91.83
2019-03-31T00:06:58.286Z,93.73
2019-03-31T00:09:29.629Z,93.03
2019-03-31T00:11:58.911Z,92.63
2019-03-31T00:14:29.909Z,92.23
2019-03-31T00:16:59.099Z,93.13
2019-03-31T00:19:28.329Z,94.13
2019-03-31T00:21:57.472Z,94.23
2019-03-31T00:24:29.471Z,94.27
2019-03-31T00:26:58.639Z,91.33
2019-03-31T00:29:30.738Z,96.93
2019-03-31T00:31:59.927Z,93.33
2019-03-31T00:34:29.047Z,96.30
2019-03-31T00:36:58.200Z,92.90
2019-03-31T00:39:27.427Z,98.13
2019-03-31T00:41:56.611Z,101.43
2019-03-31T00:44:26.003Z,97.97
2019-03-31T00:46:55.213Z,99.23
2019-03-31T00:49:24.321Z,91.67
2019-03-31T00:51:53.524Z,102.70
2019-03-31T00:54:22.712Z,100.53
2019-03-31T00:56:51.875Z,97.80
2019-03-31T00:59:21.031Z,96.83
2019-03-31T01:02:14.153Z,101.50
2019-03-31T01:04:43.336Z,96.27
2019-03-31T01:07:12.558Z,98.80
2019-03-31T01:09:42.589Z,97.67
2019-03-31T01:12:11.744Z,98.60
2019-03-31T01:14:40.937Z,102.47
2019-03-31T01:17:13.695Z,99.67
2019-03-31T01:19:43.096Z,101.20
2019-03-31T01:22:12.329Z,97.83
2019-03-31T01:25:00.525Z,100.87
2019-03-31T01:27:29.753Z,98.07
2019-03-31T01:29:58.942Z,103.17
2019-03-31T01:32:28.407Z,96.93
2019-03-31T01:34:57.624Z,97.30
2019-03-31T01:37:29.687Z,97.07
2019-03-31T01:39:58.820Z,92.63
2019-03-31T01:42:28.015Z,92.37
2019-03-31T01:44:59.297Z,89.30
2019-03-31T01:47:30.691Z,86.20
2019-03-31T01:49:59.845Z,85.67
2019-03-31T01:52:29.004Z,88.90
2019-03-31T01:54:58.268Z,89.63
2019-03-31T01:57:29.848Z,84.90
2019-03-31T01:59:58.995Z,88.37
2019-03-31T02:02:30.505Z,89.90
2019-03-31T02:05:00.005Z,93.47
2019-03-31T02:07:29.143Z,96.60
2019-03-31T02:09:58.347Z,91.13
2019-03-31T02:12:27.525Z,90.57
2019-03-31T02:14:56.705Z,90.50
2019-03-31T02:17:29.008Z,96.30
2019-03-31T02:19:58.258Z,88.63
2019-03-31T02:22:27.433Z,94.80
2019-03-31T02:24:56.656Z,97.53
2019-03-31T02:27:25.827Z,93.60
2019-03-31T02:29:55.005Z,94.43
2019-03-31T02:32:43.292Z,86.63
2019-03-31T02:35:31.519Z,85.67
2019-03-31T02:38:00.652Z,90.27
2019-03-31T02:40:29.801Z,88.47
2019-03-31T02:42:58.975Z,90.70
2019-03-31T02:45:29.324Z,87.13
2019-03-31T02:48:17.713Z,81.30
2019-03-31T02:50:48.255Z,76.90
2019-03-31T02:53:17.761Z,76.73
2019-03-31T02:55:46.948Z,74.60
2019-03-31T02:58:16.184Z,72.93
2019-03-31T03:00:45.873Z,70.00
2019-03-31T03:03:16.278Z,68.07
2019-03-31T03:05:45.477Z,68.17
2019-03-31T03:08:14.896Z,67.53
2019-03-31T03:10:44.686Z,66.37
2019-03-31T03:13:15.299Z,70.60
2019-03-31T03:16:05.601Z,64.80
2019-03-31T03:18:34.729Z,63.07
2019-03-31T03:21:03.883Z,59.57
2019-03-31T03:23:52.076Z,56.53
2019-03-31T03:26:21.254Z,57.40
2019-03-31T03:28:50.430Z,54.03
2019-03-31T03:31:19.877Z,54.97
2019-03-31T03:33:49.324Z,54.00
2019-03-31T03:36:18.450Z,51.00
2019-03-31T03:38:47.609Z,50.30
2019-03-31T03:41:16.741Z,49.03
2019-03-31T03:43:54.843Z,50.17
2019-03-31T03:46:16.767Z,49.03
2019-03-31T03:48:46.068Z,47.07
2019-03-31T03:51:15.535Z,47.70
2019-03-31T03:53:44.656Z,48.53
2019-03-31T03:56:16.896Z,44.93
2019-03-31T03:58:46.058Z,46.37
2019-03-31T04:01:18.021Z,46.13
2019-03-31T04:03:47.150Z,42.80
2019-03-31T04:06:16.318Z,42.60
2019-03-31T04:08:45.467Z,39.97
2019-03-31T04:11:33.661Z,41.33
2019-03-31T04:14:02.859Z,38.80
2019-03-31T04:16:32.094Z,41.17
2019-03-31T04:19:01.304Z,39.30
2019-03-31T04:21:30.450Z,37.27
2019-03-31T04:23:59.581Z,36.07
2019-03-31T04:26:28.810Z,38.30
2019-03-31T04:28:58.011Z,37.23
2019-03-31T04:31:29.362Z,36.43
2019-03-31T04:33:58.516Z,36.30
2019-03-31T04:36:27.718Z,34.33
2019-03-31T04:39:00.024Z,33.63
2019-03-31T04:41:27.825Z,32.70
2019-03-31T04:43:56.979Z,32.90
2019-03-31T04:46:26.255Z,32.13
2019-03-31T04:48:55.517Z,31.93
2019-03-31T04:51:24.673Z,32.10
2019-03-31T04:53:53.823Z,32.10
2019-03-31T04:56:22.962Z,34.13
2019-03-31T04:58:52.080Z,34.87
2019-03-31T05:01:21.369Z,35.10
2019-03-31T05:04:03.993Z,35.53
2019-03-31T05:06:21.393Z,36.23
2019-03-31T05:08:50.553Z,38.43
2019-03-31T05:11:19.688Z,37.80
2019-03-31T05:13:48.822Z,35.00
2019-03-31T05:16:17.976Z,34.80
2019-03-31T05:18:47.096Z,32.70
2019-03-31T05:21:16.233Z,31.00
2019-03-31T05:23:45.372Z,27.50
2019-03-31T05:26:14.525Z,28.50
2019-03-31T05:28:44.275Z,27.30
2019-03-31T05:31:13.558Z,25.50
2019-03-31T05:34:01.739Z,27.87
2019-03-31T05:36:30.882Z,27.70
2019-03-31T05:39:00.025Z,26.17
2019-03-31T05:41:29.169Z,25.60
2019-03-31T05:44:05.628Z,28.40
2019-03-31T05:46:29.223Z,27.67
2019-03-31T05:48:58.404Z,29.10
2019-03-31T05:51:27.613Z,30.47
2019-03-31T05:53:56.871Z,28.60
2019-03-31T05:56:26.130Z,28.20
2019-03-31T05:58:55.346Z,27.87
2019-03-31T06:01:24.738Z,27.97
2019-03-31T06:03:53.875Z,27.93
2019-03-31T06:06:37.053Z,26.33
2019-03-31T06:09:06.880Z,25.27
2019-03-31T06:11:36.088Z,25.13
2019-03-31T06:14:24.458Z,23.67
2019-03-31T06:16:53.588Z,22.87
2019-03-31T06:19:22.771Z,23.90
2019-03-31T06:21:51.904Z,22.47
2019-03-31T06:24:21.059Z,22.53
2019-03-31T06:26:50.183Z,22.17
2019-03-31T06:29:19.356Z,21.47
2019-03-31T06:31:48.851Z,21.10
2019-03-31T06:34:18.076Z,19.77
2019-03-31T06:36:47.463Z,20.43
2019-03-31T06:39:16.881Z,21.13
2019-03-31T06:41:46.009Z,20.37
2019-03-31T06:44:15.181Z,17.20
2019-03-31T06:46:44.304Z,19.27
2019-03-31T06:49:13.495Z,18.40
2019-03-31T06:51:42.656Z,17.40
2019-03-31T06:54:31.108Z,18.67
2019-03-31T06:57:00.279Z,17.63
2019-03-31T06:59:29.419Z,17.70
2019-03-31T07:01:58.621Z,16.27
2019-03-31T07:04:27.865Z,16.27
2019-03-31T07:06:57.060Z,15.30
2019-03-31T07:09:26.288Z,14.83
2019-03-31T07:11:55.450Z,14.20
2019-03-31T07:14:24.599Z,14.60
2019-03-31T07:16:53.814Z,14.57
2019-03-31T07:19:23.008Z,14.17
2019-03-31T07:21:52.165Z,12.33
2019-03-31T07:24:21.335Z,12.57
2019-03-31T07:26:50.471Z,11.57
2019-03-31T07:29:19.602Z,12.07
2019-03-31T07:31:48.764Z,11.53
2019-03-31T07:34:17.914Z,11.77
2019-03-31T07:36:47.037Z,10.27
2019-03-31T07:39:16.335Z,11.17
2019-03-31T07:41:45.996Z,10.10
2019-03-31T07:44:15.561Z,10.03
2019-03-31T07:46:44.666Z,10.63
2019-03-31T07:49:16.579Z,9.83
2019-03-31T07:51:45.708Z,9.83
2019-03-31T07:54:15.174Z,9.67
2019-03-31T07:56:44.304Z,9.60
2019-03-31T07:59:15.738Z,10.60
2019-03-31T08:01:44.988Z,8.53
2019-03-31T08:04:14.143Z,7.87
2019-03-31T08:06:43.276Z,7.47
2019-03-31T08:09:12.737Z,7.23
2019-03-31T08:11:41.856Z,6.70
2019-03-31T08:14:30.062Z,6.57
2019-03-31T08:16:59.217Z,6.17
2019-03-31T08:19:31.047Z,7.20
2019-03-31T08:22:00.211Z,6.10
2019-03-31T08:24:31.022Z,6.57
2019-03-31T08:27:00.218Z,5.73
2019-03-31T08:29:29.355Z,5.77
2019-03-31T08:31:58.565Z,4.83
2019-03-31T08:34:27.705Z,5.70
2019-03-31T08:36:56.927Z,4.80
2019-03-31T08:39:29.302Z,5.73
2019-03-31T08:41:58.423Z,4.40
2019-03-31T08:44:27.695Z,4.13
2019-03-31T08:46:56.895Z,3.87
2019-03-31T08:49:27.945Z,3.47
2019-03-31T08:51:58.073Z,3.30
2019-03-31T08:54:29.637Z,3.20
2019-03-31T08:56:58.792Z,2.80
2019-03-31T08:59:27.980Z,2.97
2019-03-31T09:01:57.254Z,2.93
2019-03-31T09:04:26.577Z,2.83
2019-03-31T09:06:55.778Z,3.00
2019-03-31T09:09:24.914Z,2.43
2019-03-31T09:11:54.034Z,3.10
2019-03-31T09:14:23.172Z,3.30
2019-03-31T09:16:52.304Z,2.97
2019-03-31T09:19:21.440Z,2.80
2019-03-31T09:21:50.999Z,2.97
2019-03-31T09:24:20.446Z,2.43
2019-03-31T09:26:49.865Z,2.73
2019-03-31T09:29:19.012Z,3.33
2019-03-31T09:31:48.212Z,3.10
2019-03-31T09:34:17.349Z,4.50
2019-03-31T09:36:46.506Z,3.53
2019-03-31T09:39:15.641Z,4.00
2019-03-31T09:41:44.756Z,3.50
2019-03-31T09:44:16.924Z,2.97
2019-03-31T09:47:05.166Z,3.57
2019-03-31T09:49:34.365Z,3.47
2019-03-31T09:52:03.500Z,3.60
2019-03-31T09:54:32.649Z,3.83
2019-03-31T09:57:01.792Z,3.40
2019-03-31T09:59:30.940Z,4.13
2019-03-31T10:02:00.427Z,3.20
2019-03-31T10:04:29.564Z,3.93
2019-03-31T10:06:58.800Z,3.73
2019-03-31T10:09:29.180Z,3.17
2019-03-31T10:11:58.339Z,3.57
2019-03-31T10:14:30.201Z,3.67
2019-03-31T10:16:59.356Z,3.10
2019-03-31T10:19:28.593Z,2.80
2019-03-31T10:21:57.805Z,2.97
2019-03-31T10:24:28.633Z,2.63
2019-03-31T10:27:00.921Z,2.40
2019-03-31T10:29:30.140Z,2.53
2019-03-31T10:31:59.298Z,2.40
2019-03-31T10:34:28.485Z,2.90
2019-03-31T10:36:57.469Z,2.57
2019-03-31T10:39:29.046Z,3.67
2019-03-31T10:42:17.251Z,3.53
2019-03-31T10:44:46.452Z,6.47
2019-03-31T10:47:15.643Z,7.60
2019-03-31T10:49:44.789Z,12.63
2019-03-31T10:52:13.968Z,11.93
2019-03-31T10:54:43.153Z,12.73
2019-03-31T10:57:14.750Z,11.87
2019-03-31T10:59:43.903Z,10.97
2019-03-31T11:02:13.379Z,9.17
2019-03-31T11:04:44.543Z,8.57
2019-03-31T11:07:14.075Z,7.63
2019-03-31T11:09:43.222Z,8.40
2019-03-31T11:12:14.546Z,7.77
2019-03-31T11:14:43.732Z,6.73
2019-03-31T11:17:13.174Z,5.77
2019-03-31T11:19:42.309Z,5.40
2019-03-31T11:22:18.227Z,4.63
2019-03-31T11:24:47.358Z,4.03
2019-03-31T11:27:16.526Z,3.90
2019-03-31T11:29:46.028Z,3.57
2019-03-31T11:32:15.179Z,3.60
2019-03-31T11:34:44.348Z,4.33
2019-03-31T11:37:14.106Z,4.50
2019-03-31T11:39:43.505Z,4.30
2019-03-31T11:42:15.823Z,4.17
2019-03-31T11:44:45.028Z,3.30
2019-03-31T11:47:14.299Z,3.63
2019-03-31T11:49:43.443Z,3.43
2019-03-31T11:52:13.114Z,3.83
2019-03-31T11:54:45.718Z,3.43
2019-03-31T11:57:17.536Z,4.70
2019-03-31T11:59:49.573Z,3.63
2019-03-31T12:02:36.701Z,3.30
2019-03-31T12:05:06.353Z,2.93
2019-03-31T12:07:46.550Z,2.97
2019-03-31T12:10:06.609Z,3.13
2019-03-31T12:12:35.749Z,3.17
2019-03-31T12:15:05.266Z,2.37
2019-03-31T12:17:34.402Z,2.33
2019-03-31T12:20:03.564Z,2.47
2019-03-31T12:22:32.707Z,2.77
2019-03-31T12:25:02.146Z,3.03
2019-03-31T12:27:31.376Z,3.27
2019-03-31T12:30:00.585Z,2.83
2019-03-31T12:32:29.775Z,2.73
2019-03-31T12:34:58.964Z,4.23
2019-03-31T12:37:41.670Z,2.07
2019-03-31T12:40:00.892Z,2.50
2019-03-31T12:42:30.209Z,2.83
2019-03-31T12:44:59.393Z,7.10
2019-03-31T12:47:28.674Z,6.87
2019-03-31T12:49:58.720Z,55.03
2019-03-31T12:52:31.174Z,61.90
2019-03-31T12:55:00.505Z,19.40
2019-03-31T12:57:29.823Z,266.73
2019-03-31T12:59:59.150Z,8.47
2019-03-31T13:02:30.846Z,20.03
2019-03-31T13:05:00.109Z,30.47
2019-03-31T13:07:29.376Z,40.23
2019-03-31T13:09:58.677Z,7.57
2019-03-31T13:12:30.916Z,6.00
2019-03-31T13:15:00.370Z,6.97
2019-03-31T13:17:29.705Z,3.50
2019-03-31T13:19:58.892Z,3.47
2019-03-31T13:22:30.438Z,4.33
2019-03-31T13:25:02.291Z,2.60
2019-03-31T13:27:30.585Z,3.30
2019-03-31T13:29:59.885Z,3.10
2019-03-31T13:32:31.003Z,5.33
2019-03-31T13:35:00.366Z,18.53
2019-03-31T13:37:29.656Z,29.73
2019-03-31T13:39:59.037Z,28.83
2019-03-31T13:42:30.105Z,24.40
2019-03-31T13:44:59.396Z,16.30
2019-03-31T13:47:30.253Z,6.30
2019-03-31T13:49:59.576Z,4.17
2019-03-31T13:52:31.981Z,4.40
2019-03-31T13:55:01.387Z,3.17
2019-03-31T13:57:31.845Z,7.50
2019-03-31T14:00:01.639Z,16.23
2019-03-31T14:02:30.952Z,80.90
2019-03-31T14:05:00.268Z,19.10
2019-03-31T14:07:33.139Z,19.03
2019-03-31T14:10:13.764Z,4.90
2019-03-31T14:12:44.349Z,11.20
2019-03-31T14:15:19.356Z,20.17
2019-03-31T14:17:44.620Z,9.07
2019-03-31T14:20:16.703Z,21.10
2019-03-31T14:22:46.098Z,29.50
2019-03-31T14:25:15.377Z,71.47
2019-03-31T14:27:44.637Z,44.00
2019-03-31T14:30:16.873Z,127.80
2019-03-31T14:32:46.013Z,41.17
2019-03-31T14:35:15.162Z,25.27
2019-03-31T14:37:44.404Z,24.67
2019-03-31T14:40:16.692Z,45.10
2019-03-31T14:42:45.915Z,82.17
2019-03-31T14:45:36.489Z,126.57
2019-03-31T14:48:05.956Z,37.37
2019-03-31T14:50:36.466Z,50.30
2019-03-31T14:53:06.038Z,9.70
2019-03-31T14:55:35.170Z,3.60
2019-03-31T14:58:07.750Z,3.40
2019-03-31T15:00:35.669Z,2.20
2019-03-31T15:03:04.883Z,2.93
2019-03-31T15:05:34.242Z,2.80
2019-03-31T15:08:03.455Z,3.30
2019-03-31T15:10:32.959Z,3.30
2019-03-31T15:13:02.121Z,2.43
2019-03-31T15:15:31.262Z,2.20
2019-03-31T15:18:00.435Z,2.43
2019-03-31T15:20:29.588Z,2.80
2019-03-31T15:22:58.793Z,2.47
2019-03-31T15:25:29.109Z,2.77
2019-03-31T15:27:58.620Z,10.60
2019-03-31T15:30:27.889Z,6.23
2019-03-31T15:32:57.340Z,3.20
2019-03-31T15:35:28.721Z,3.77
2019-03-31T15:38:00.674Z,5.70
2019-03-31T15:40:30.140Z,3.00
2019-03-31T15:42:59.287Z,2.67
2019-03-31T15:45:28.752Z,2.93
2019-03-31T15:47:57.985Z,3.00
2019-03-31T15:50:29.587Z,2.27
2019-03-31T15:52:58.773Z,2.87
2019-03-31T15:55:28.103Z,2.77
2019-03-31T15:57:59.603Z,2.87
2019-03-31T16:00:31.631Z,2.70
2019-03-31T16:03:00.892Z,3.20
2019-03-31T16:05:30.075Z,2.73
2019-03-31T16:07:58.973Z,2.90
2019-03-31T16:10:27.692Z,2.80
2019-03-31T16:12:57.528Z,3.37
2019-03-31T16:15:26.322Z,2.90
2019-03-31T16:17:54.996Z,3.60
2019-03-31T16:20:23.579Z,3.73
2019-03-31T16:22:52.171Z,2.30
2019-03-31T16:25:29.956Z,2.87
2019-03-31T16:27:58.679Z,2.40
2019-03-31T16:30:27.721Z,2.90
2019-03-31T16:32:56.464Z,3.23
2019-03-31T16:35:26.855Z,2.53
2019-03-31T16:38:14.893Z,2.57
2019-03-31T16:40:43.525Z,2.77
2019-03-31T16:43:13.820Z,3.20
2019-03-31T16:45:42.395Z,3.17
2019-03-31T16:48:11.160Z,2.33
2019-03-31T16:50:40.080Z,2.20
2019-03-31T16:53:08.659Z,2.77
2019-03-31T16:55:37.254Z,2.47
2019-03-31T16:58:09.179Z,2.40
2019-03-31T17:00:36.476Z,2.33
2019-03-31T17:03:05.046Z,3.37
2019-03-31T17:05:33.699Z,2.80
2019-03-31T17:08:02.273Z,2.40
2019-03-31T17:10:30.871Z,2.77
2019-03-31T17:12:59.751Z,2.57
2019-03-31T17:15:28.422Z,2.27
2019-03-31T17:17:57.516Z,2.83
2019-03-31T17:20:27.643Z,2.07
2019-03-31T17:22:56.429Z,2.10
2019-03-31T17:25:26.908Z,2.37
2019-03-31T17:27:55.648Z,2.63
2019-03-31T17:30:24.265Z,2.13
2019-03-31T17:32:52.844Z,1.93
2019-03-31T17:35:21.428Z,1.80
2019-03-31T17:37:50.032Z,2.13
2019-03-31T17:40:18.668Z,2.27
2019-03-31T17:43:06.585Z,2.50
2019-03-31T17:45:35.188Z,2.10
2019-03-31T17:48:03.764Z,1.73
2019-03-31T17:50:32.432Z,2.07
2019-03-31T17:53:03.699Z,2.67
2019-03-31T17:55:34.787Z,2.20
2019-03-31T17:58:03.724Z,2.20
2019-03-31T18:00:51.771Z,2.13
2019-03-31T18:03:20.378Z,2.07
2019-03-31T18:05:48.947Z,1.93
2019-03-31T18:08:17.529Z,2.63
2019-03-31T18:10:53.353Z,2.27
2019-03-31T18:13:22.249Z,1.70
2019-03-31T18:15:50.832Z,2.70
2019-03-31T18:18:19.457Z,1.83
2019-03-31T18:20:48.096Z,1.93
2019-03-31T18:26:03.618Z,2.43
2019-03-31T18:28:32.195Z,2.00
2019-03-31T18:31:00.840Z,2.63
2019-03-31T18:33:29.460Z,2.53
2019-03-31T18:35:58.104Z,2.07
2019-03-31T18:38:26.693Z,3.03
2019-03-31T18:40:55.311Z,2.90
2019-03-31T18:43:23.893Z,2.60
2019-03-31T18:45:52.481Z,2.33
2019-03-31T18:48:21.080Z,2.97
2019-03-31T18:50:49.706Z,2.67
2019-03-31T18:53:32.879Z,2.23
2019-03-31T18:56:12.303Z,1.97
2019-03-31T18:59:07.661Z,2.60
2019-03-31T19:02:04.421Z,2.40
2019-03-31T19:04:51.868Z,2.90
2019-03-31T19:07:29.171Z,2.87
2019-03-31T19:10:24.731Z,2.57
2019-03-31T19:13:09.302Z,2.57
2019-03-31T19:15:48.934Z,3.10
2019-03-31T19:18:32.116Z,3.23
2019-03-31T19:21:17.818Z,2.83
2019-03-31T19:24:11.813Z,2.60
2019-03-31T19:26:57.347Z,2.13
2019-03-31T19:29:54.432Z,2.60
2019-03-31T19:32:42.170Z,2.63
2019-03-31T19:35:27.689Z,2.30
2019-03-31T19:38:23.683Z,2.57
2019-03-31T19:41:07.581Z,3.47
2019-03-31T19:44:01.217Z,2.90
2019-03-31T19:47:06.989Z,2.23
2019-03-31T19:49:54.665Z,2.00
2019-03-31T19:52:45.975Z,2.60
2019-03-31T19:55:33.059Z,2.77
2019-03-31T19:58:20.744Z,2.37
2019-03-31T20:01:07.432Z,2.43
2019-03-31T20:03:55.163Z,2.97
2019-03-31T20:06:49.125Z,2.70
2019-03-31T20:09:35.370Z,3.60
2019-03-31T20:12:41.448Z,3.23
2019-03-31T20:15:27.790Z,2.77
2019-03-31T20:18:21.266Z,2.60
2019-03-31T20:21:11.296Z,2.63
2019-03-31T20:23:54.892Z,2.33
2019-03-31T20:26:48.651Z,2.93
2019-03-31T20:29:23.557Z,2.70
2019-03-31T20:32:04.463Z,2.43
2019-03-31T20:34:40.934Z,2.87
2019-03-31T20:37:29.507Z,3.20
2019-03-31T20:40:18.569Z,2.80
2019-03-31T20:43:15.244Z,3.13
2019-03-31T20:45:44.130Z,3.23
2019-03-31T20:48:12.869Z,3.67
2019-03-31T20:51:00.817Z,2.87
2019-03-31T20:53:30.518Z,2.57
2019-03-31T20:55:59.105Z,2.87
2019-03-31T20:58:30.085Z,2.83
2019-03-31T21:00:58.667Z,2.40
2019-03-31T21:03:27.275Z,2.53
2019-03-31T21:05:55.902Z,3.33
2019-03-31T21:08:24.499Z,3.17
2019-03-31T21:10:53.060Z,2.37
2019-03-31T21:13:21.652Z,2.67
2019-03-31T21:15:50.225Z,2.77
2019-03-31T21:18:18.787Z,2.87
2019-03-31T21:20:47.378Z,2.43
2019-03-31T21:23:15.963Z,2.67
2019-03-31T21:25:44.552Z,3.10
2019-03-31T21:28:13.155Z,2.53
2019-03-31T21:30:41.739Z,2.80
2019-03-31T21:33:10.352Z,2.20
2019-03-31T21:35:38.963Z,2.30
2019-03-31T21:38:07.544Z,2.20
2019-03-31T21:40:36.144Z,2.53
2019-03-31T21:43:04.740Z,2.20
2019-03-31T21:45:33.327Z,2.77
2019-03-31T21:48:01.909Z,2.67
2019-03-31T21:50:30.488Z,2.00
2019-03-31T21:52:59.105Z,3.00
2019-03-31T21:55:27.762Z,2.40
2019-03-31T21:57:56.616Z,2.30
2019-03-31T22:00:38.485Z,2.33
2019-03-31T22:03:07.123Z,2.60
2019-03-31T22:05:35.687Z,2.50
2019-03-31T22:08:04.278Z,2.23
2019-03-31T22:10:32.844Z,2.60
2019-03-31T22:13:03.614Z,2.37
2019-03-31T22:15:32.221Z,2.73
2019-03-31T22:18:18.782Z,2.50
2019-03-31T22:20:47.470Z,3.00
2019-03-31T22:23:16.222Z,2.27
2019-03-31T22:25:46.059Z,2.37
2019-03-31T22:28:14.711Z,2.83
2019-03-31T22:30:43.335Z,2.50
2019-03-31T22:33:11.983Z,2.10
2019-03-31T22:35:40.819Z,2.10
2019-03-31T22:38:11.319Z,2.70
2019-03-31T22:40:41.296Z,2.53
2019-03-31T22:43:09.914Z,2.60
2019-03-31T22:45:38.473Z,2.30
2019-03-31T22:48:07.059Z,2.30
2019-03-31T22:50:35.636Z,2.40
2019-03-31T22:53:04.228Z,2.73
2019-03-31T22:55:32.803Z,2.40
2019-03-31T22:58:01.389Z,2.57
2019-03-31T23:00:29.968Z,2.80
2019-03-31T23:02:58.561Z,2.63
2019-03-31T23:05:29.602Z,2.67
2019-03-31T23:07:58.179Z,2.47
2019-03-31T23:10:26.819Z,1.87
2019-03-31T23:12:55.425Z,2.27
2019-03-31T23:15:24.004Z,2.30
2019-03-31T23:17:52.589Z,2.80
2019-03-31T23:20:21.173Z,2.43
2019-03-31T23:22:49.746Z,1.97
2019-03-31T23:25:18.304Z,1.90
2019-03-31T23:27:46.898Z,2.23
2019-03-31T23:30:15.551Z,2.27
2019-03-31T23:32:44.199Z,2.83
2019-03-31T23:35:14.319Z,2.67
2019-03-31T23:37:42.952Z,2.10
2019-03-31T23:40:11.673Z,2.10
2019-03-31T23:42:40.267Z,1.53
2019-03-31T23:45:08.848Z,2.17
2019-03-31T23:47:37.433Z,1.93
2019-03-31T23:50:06.041Z,2.10
2019-03-31T23:52:34.639Z,1.30
2019-03-31T23:55:03.264Z,1.60
2019-03-31T23:57:41.066Z,2.10
